ADDS TAF Board (Experimental) INFO Settings
IDs: Format: Expanded Condensed

KSEA - Seattle-Tacoma Intl, WA, US

Issued at 1512 UTC 29 Apr 2016
Updated at: 1558 UTC 29 Apr 2016
Time1553Z 29/16Z 29/17Z 29/18Z 29/19Z 29/20Z 29/21Z 29/22Z 29/23Z 30/00Z 30/01Z 30/02Z 30/03Z 30/04Z
Type OBS PRVL PRVL PRVL PRVL PRVL PRVL PRVL PRVL PRVL PRVL PRVL PRVL PRVL
VIS 10 >6 >6 >6 >6 >6 >6 >6 >6 >6 >6 >6 >6 >6
CIG 17 15 15 15 15 15 50 50 50 50 50 50 50 50
Cover OVC OVC OVC OVC OVC OVC BKN BKN BKN BKN BKN BKN BKN BKN
FltCat MVFR MVFR MVFR MVFR MVFR MVFR VFR VFR VFR VFR VFR VFR VFR VFR
WX -RA -SHRA -SHRA -SHRA -SHRA -SHRA VCSH VCSH VCSH -- -- -- -- --
WDir 170 180 180 180 180 180 260 260 260 330 330 330 VRB VRB
WSpd 4 6 6 6 6 6 5 5 5 6 6 6 3 3
WGst -- -- -- -- -- -- -- -- -- -- -- -- -- --
R16/34
XWnd 1 0 0 0 0 0 -5 -5 -5 -3 -3 -3 VRB VRB
HWnd 4 6 6 6 6 6 1 1 1 -5 -5 -5 VRB VRB

NOTE: TEMPO conditions in [brackets]. Keep in mind TEMPO conditions might be better (lower impact) than prevailing conditions.

Raw TAF
KSEA 291512Z 2915/3018 18006KT P6SM -SHRA SCT008 OVC015
  FM292100 26005KT P6SM VCSH SCT035 BKN050
  FM300000 33006KT P6SM SCT035 BKN050
  FM300300 VRB03KT P6SM BKN050
  FM300700 17005KT P6SM BKN050


Raw METAR
KSEA 291553Z 17004KT 10SM -RA OVC017 09/07 A3011 RMK AO2 RAB50 SLP201 P0000 T00940067
KSEA 291453Z 17003KT 10SM OVC018 09/06 A3010 RMK AO2 SLP197 T00940056 53004
KSEA 291353Z 17005KT 10SM OVC019 09/06 A3009 RMK AO2 SLP195 T00940056
KSEA 291253Z 17004KT 10SM OVC022 09/05 A3008 RMK AO2 SLP193 T00940050

METAR Board
Radar Display
Forecast Discussion

TAF Board Legend

Potential Impact
Threat None Slight Moderate High
Visibility (sm) ≥5.1 5.1>X≥3 3>X≥1 <1
Ceiling (100 ft) ≥30.1 30.1>X≥10 10>X≥5 <5
Wind Speed (kt) <10 10≤X<20 20≤X<30 ≥30
Wind Gust (kt) <15 15≤X<25 25≤X<35 ≥35
Weather No Wx Reported VCTS,-TS,-FZRA,SN TS,FZRA +TS,+FZRA,+SN